Terminal Aerodrome Forecast
Issued by NWS Binghamton, NY

Home | Current Version | Previous Version | Text Only | Print | Product List | Glossary On
Versions: 1 2 3 4 5 6 7 8 9 10 11 12 13 14 15 16 17 18 19
000
FTUS41 KBGM 241100
TAFBGM
TAF
KBGM 241129Z 2412/2512 32010KT P6SM SKC
     FM241400 33015G25KT P6SM SCT250
     FM242300 35005KT P6SM BKN250
     FM250600 VRB03KT P6SM BKN100=

USA.gov is the U.S. government's official web portal to all federal, state and local government web resources and services.